Time;durP1;ratioP1;P1;durP2;ratioP2;P2;SDS_P1;SDS_P2;PMS_P1;PMS_P2;Temp;Humidity;BMP_temperature;BMP_pressure;BME280_temperature;BME280_humidity;BME280_pressure;Samples;Min_cycle;Max_cycle;Signal;HPM_P1;HPM_P2
2023/05/24 00:02:25;;;;;;;10.65;4.13;;;;;;;;;;5065649;28;20033;-68
2023/05/24 00:04:51;;;;;;;13.18;4.03;;;20.10;80.90;;;;;;5071422;28;20071;-67
2023/05/24 00:07:18;;;;;;;10.15;3.35;;;20.30;81.00;;;;;;5073093;28;20040;-67
2023/05/24 00:09:44;;;;;;;11.38;3.75;;;;;;;;;;5070625;28;20044;-68
2023/05/24 00:12:09;;;;;;;14.43;3.60;;;20.30;81.00;;;;;;5070185;28;20656;-61
2023/05/24 00:14:35;;;;;;;9.95;3.40;;;20.10;80.90;;;;;;5071840;28;20131;-60
2023/05/24 00:17:01;;;;;;;12.93;4.57;;;20.20;81.00;;;;;;5073653;28;20128;-60
2023/05/24 00:19:28;;;;;;;10.52;3.85;;;20.30;81.00;;;;;;5070564;28;20055;-60
2023/05/24 00:21:54;;;;;;;11.60;3.53;;;20.10;80.90;;;;;;5070156;28;20551;-60
2023/05/24 00:24:20;;;;;;;10.48;3.63;;;20.20;80.90;;;;;;5072132;28;20402;-60
2023/05/24 00:26:47;;;;;;;12.68;4.15;;;20.20;79.70;;;;;;5073319;28;20502;-61
2023/05/24 00:29:12;;;;;;;9.32;3.28;;;20.10;80.90;;;;;;5072481;28;20044;-60
2023/05/24 00:31:38;;;;;;;10.27;3.63;;;20.10;81.00;;;;;;5069488;28;20048;-64
2023/05/24 00:34:04;;;;;;;16.00;4.22;;;;;;;;;;5071937;28;20719;-66
2023/05/24 00:36:30;;;;;;;10.57;3.95;;;20.20;80.90;;;;;;5071905;28;20084;-65
2023/05/24 00:38:56;;;;;;;13.38;3.65;;;20.40;80.80;;;;;;5064840;28;20133;-62
2023/05/24 00:41:22;;;;;;;11.05;3.33;;;20.10;80.80;;;;;;5058163;28;20098;-60
2023/05/24 00:43:48;;;;;;;10.73;3.22;;;;;;;;;;5071202;28;20045;-65
2023/05/24 00:46:14;;;;;;;12.57;3.63;;;20.00;80.80;;;;;;5053184;28;20150;-60
2023/05/24 00:48:40;;;;;;;10.50;3.47;;;20.20;81.00;;;;;;5054118;28;20401;-60
2023/05/24 00:51:07;;;;;;;10.85;3.53;;;;;;;;;;5070826;28;20032;-62
2023/05/24 00:53:33;;;;;;;11.35;3.85;;;;;;;;;;5069100;28;20083;-64
2023/05/24 00:55:59;;;;;;;10.73;3.65;;;20.20;81.00;;;;;;5054764;28;20505;-65
2023/05/24 00:58:29;;;;;;;12.98;3.33;;;20.00;80.80;;;;;;5070063;28;20124;-65
2023/05/24 01:01:00;;;;;;;10.60;3.20;;;20.10;80.90;;;;;;5073241;28;20051;-61
2023/05/24 01:03:29;;;;;;;9.60;3.60;;;20.10;76.80;;;;;;5051928;28;20154;-60
2023/05/24 01:06:02;;;;;;;10.35;3.78;;;19.90;80.80;;;;;;5068007;28;20088;-65
2023/05/24 01:08:41;;;;;;;11.15;3.60;;;20.00;80.80;;;;;;5052422;28;20036;-62
2023/05/24 01:11:09;;;;;;;9.18;3.50;;;19.90;77.80;;;;;;5072478;28;20180;-61
2023/05/24 01:13:46;;;;;;;9.63;3.25;;;19.90;80.80;;;;;;5071238;28;20044;-61
2023/05/24 01:16:24;;;;;;;11.95;3.75;;;19.90;79.40;;;;;;5014499;28;20054;-62
2023/05/24 01:18:59;;;;;;;13.25;3.67;;;20.00;80.80;;;;;;5013192;28;20101;-62
2023/05/24 01:22:05;;;;;;;10.50;3.60;;;19.70;80.70;;;;;;5013570;28;20046;-63
2023/05/24 01:24:53;;;;;;;12.27;4.18;;;20.00;76.30;;;;;;4990206;28;20058;-65
2023/05/24 01:27:18;;;;;;;9.68;3.00;;;20.20;81.10;;;;;;5023758;28;20037;-65
2023/05/24 01:29:44;;;;;;;8.57;3.00;;;19.90;80.90;;;;;;5014487;28;20037;-64
2023/05/24 01:32:10;;;;;;;11.25;3.83;;;19.60;80.70;;;;;;5012749;28;20041;-65
2023/05/24 01:34:35;;;;;;;8.98;3.45;;;20.10;81.10;;;;;;5031341;28;20060;-65
2023/05/24 01:37:01;;;;;;;10.63;3.40;;;20.30;81.20;;;;;;5019390;28;20120;-66
2023/05/24 01:39:28;;;;;;;8.43;3.13;;;20.00;81.10;;;;;;5025483;28;20054;-61
2023/05/24 01:42:25;;;;;;;11.02;3.80;;;20.00;81.00;;;;;;5014854;28;20564;-66
2023/05/24 01:45:03;;;;;;;11.02;3.58;;;20.00;81.10;;;;;;5032580;28;20045;-65
2023/05/24 01:47:53;;;;;;;9.30;3.38;;;20.30;76.90;;;;;;5016630;28;20515;-63
2023/05/24 01:50:27;;;;;;;9.52;3.17;;;20.00;81.10;;;;;;5027110;28;20095;-60
2023/05/24 01:52:53;;;;;;;11.32;3.80;;;;;;;;;;5024481;28;20060;-67
2023/05/24 01:55:19;;;;;;;12.23;3.60;;;19.80;81.00;;;;;;5028819;28;20171;-67
2023/05/24 01:57:46;;;;;;;10.90;3.40;;;20.10;81.20;;;;;;5011176;28;20551;-67
2023/05/24 02:00:13;;;;;;;9.63;3.45;;;19.90;81.10;;;;;;5018866;28;20053;-67
2023/05/24 02:02:40;;;;;;;9.55;3.28;;;;;;;;;;5028463;28;20049;-63
2023/05/24 02:05:06;;;;;;;10.38;3.08;;;20.00;81.10;;;;;;5031315;28;20092;-61
2023/05/24 02:07:31;;;;;;;11.13;3.72;;;19.90;81.20;;;;;;5026904;28;20045;-61
2023/05/24 02:09:57;;;;;;;10.52;3.20;;;;;;;;;;5030263;28;20045;-60
2023/05/24 02:12:23;;;;;;;10.23;3.60;;;19.90;78.20;;;;;;5030112;28;20086;-60
2023/05/24 02:14:49;;;;;;;10.38;3.10;;;;;;;;;;5045036;28;20144;-61
2023/05/24 02:17:17;;;;;;;12.75;3.47;;;19.90;81.20;;;;;;5075204;28;20486;-60
2023/05/24 02:19:42;;;;;;;11.18;3.55;;;20.00;81.30;;;;;;5073970;28;20074;-61
2023/05/24 02:22:08;;;;;;;8.95;3.63;;;19.80;81.10;;;;;;5056488;28;20182;-60
2023/05/24 02:24:36;;;;;;;8.40;3.05;;;;;;;;;;5069897;28;20055;-65
2023/05/24 02:27:01;;;;;;;12.95;3.75;;;19.90;81.30;;;;;;5075191;28;20405;-64
2023/05/24 02:29:27;;;;;;;11.23;3.53;;;19.90;81.30;;;;;;5075998;28;20048;-65
2023/05/24 02:31:55;;;;;;;8.13;3.03;;;19.70;81.20;;;;;;5074937;28;20040;-66
2023/05/24 02:34:24;;;;;;;10.57;3.42;;;19.90;81.30;;;;;;5072711;28;20488;-66
2023/05/24 02:36:50;;;;;;;8.43;2.90;;;19.90;81.30;;;;;;5072287;28;20072;-67
2023/05/24 02:39:16;;;;;;;11.63;3.58;;;19.90;81.10;;;;;;5075256;28;20060;-64
2023/05/24 02:41:42;;;;;;;9.82;2.95;;;20.00;81.30;;;;;;5073207;28;20040;-60
2023/05/24 02:44:08;;;;;;;9.55;2.97;;;;;;;;;;5069124;28;20048;-62
2023/05/24 02:46:34;;;;;;;10.05;3.25;;;;;;;;;;5072417;28;20041;-62
2023/05/24 02:49:00;;;;;;;9.27;2.95;;;19.80;80.80;;;;;;5063464;28;20485;-61
2023/05/24 02:51:26;;;;;;;7.15;3.00;;;;;;;;;;5075512;28;20165;-61
2023/05/24 02:53:51;;;;;;;12.15;2.78;;;19.70;81.30;;;;;;5074618;28;20055;-64
2023/05/24 02:56:18;;;;;;;10.80;2.90;;;20.00;81.50;;;;;;5074119;28;20044;-65
2023/05/24 02:58:43;;;;;;;8.57;3.08;;;19.90;81.40;;;;;;5074671;28;20052;-66
2023/05/24 03:01:12;;;;;;;9.40;3.28;;;19.80;81.10;;;;;;5074614;28;20033;-66
2023/05/24 03:03:38;;;;;;;7.63;2.47;;;19.90;81.40;;;;;;5072234;28;20127;-60
2023/05/24 03:06:05;;;;;;;10.38;2.92;;;20.00;79.50;;;;;;5054373;28;20044;-65
2023/05/24 03:08:32;;;;;;;8.68;2.70;;;20.00;77.50;;;;;;5072287;28;20045;-65
2023/05/24 03:10:58;;;;;;;9.93;3.13;;;19.90;81.50;;;;;;5056152;28;20041;-61
2023/05/24 03:13:23;;;;;;;11.10;2.88;;;19.90;81.50;;;;;;5073629;28;20043;-61
2023/05/24 03:15:49;;;;;;;9.10;3.35;;;20.20;81.80;;;;;;5071669;28;20406;-66
2023/05/24 03:18:15;;;;;;;8.82;3.00;;;19.80;81.50;;;;;;5073289;28;20489;-62
2023/05/24 03:20:41;;;;;;;8.48;3.05;;;19.80;81.60;;;;;;5061782;28;20447;-61
2023/05/24 03:23:08;;;;;;;11.48;2.80;;;19.80;81.60;;;;;;5061912;28;20056;-61
2023/05/24 03:25:34;;;;;;;9.63;3.33;;;19.80;78.40;;;;;;5063862;28;20497;-65
2023/05/24 03:28:01;;;;;;;7.70;2.97;;;19.90;81.70;;;;;;5074300;28;20047;-64
2023/05/24 03:30:27;;;;;;;12.10;2.90;;;19.80;81.70;;;;;;5073068;28;20090;-61
2023/05/24 03:32:53;;;;;;;9.43;3.30;;;20.00;80.20;;;;;;5071860;28;20447;-64
2023/05/24 03:35:19;;;;;;;8.50;2.63;;;20.00;81.80;;;;;;5072975;28;20072;-66
2023/05/24 03:37:45;;;;;;;9.43;3.20;;;20.00;81.80;;;;;;5068872;28;20044;-66
2023/05/24 03:40:11;;;;;;;8.38;2.95;;;19.70;81.70;;;;;;5071396;28;20110;-61
2023/05/24 03:42:37;;;;;;;8.82;2.85;;;20.00;81.80;;;;;;5054018;28;20048;-61
2023/05/24 03:45:03;;;;;;;9.70;3.20;;;19.70;81.70;;;;;;5067822;28;20037;-63
2023/05/24 03:47:29;;;;;;;8.88;3.08;;;20.00;81.90;;;;;;5069798;28;20072;-67
2023/05/24 03:49:55;;;;;;;6.55;2.72;;;;;;;;;;5074544;28;20499;-62
2023/05/24 03:52:21;;;;;;;9.77;3.40;;;19.90;81.80;;;;;;5073473;28;20044;-65
2023/05/24 03:54:48;;;;;;;7.97;2.67;;;20.00;81.90;;;;;;5072441;28;20059;-68
2023/05/24 03:57:14;;;;;;;9.35;3.00;;;19.80;79.60;;;;;;5073074;28;20048;-65
2023/05/24 03:59:40;;;;;;;10.93;3.40;;;19.90;81.90;;;;;;5068496;28;20052;-66
2023/05/24 04:02:06;;;;;;;7.22;3.00;;;;;;;;;;5071783;28;20053;-67
2023/05/24 04:04:31;;;;;;;9.85;3.00;;;19.90;81.90;;;;;;5055509;28;20037;-65
2023/05/24 04:06:57;;;;;;;7.78;2.88;;;20.00;81.90;;;;;;5072970;28;20048;-65
2023/05/24 04:09:23;;;;;;;10.50;3.15;;;19.70;81.80;;;;;;5072354;28;20040;-64
2023/05/24 04:11:49;;;;;;;10.63;3.22;;;;;;;;;;5070039;28;20045;-62
2023/05/24 04:14:15;;;;;;;8.27;2.88;;;20.00;81.70;;;;;;5072589;28;20056;-61
2023/05/24 04:16:43;;;;;;;8.95;3.00;;;19.90;81.90;;;;;;5061405;28;20045;-65
2023/05/24 04:19:10;;;;;;;11.50;3.33;;;20.00;82.00;;;;;;5066738;28;20383;-65
2023/05/24 04:21:36;;;;;;;9.85;2.72;;;19.90;81.90;;;;;;5071554;28;20040;-62
2023/05/24 04:24:03;;;;;;;7.78;2.65;;;20.10;82.10;;;;;;5071847;28;20040;-61
2023/05/24 04:26:29;;;;;;;8.13;2.60;;;19.90;82.10;;;;;;5055703;28;20113;-65
2023/05/24 04:28:55;;;;;;;9.32;2.92;;;19.90;80.40;;;;;;5059740;28;20041;-61
2023/05/24 04:31:21;;;;;;;8.27;2.90;;;20.10;82.70;;;;;;5073725;28;20052;-61
2023/05/24 04:33:48;;;;;;;8.55;2.80;;;19.90;81.30;;;;;;5071812;28;20043;-64
2023/05/24 04:36:15;;;;;;;7.88;2.80;;;20.10;82.40;;;;;;5071610;28;20053;-63
2023/05/24 04:38:41;;;;;;;10.27;3.83;;;;;;;;;;5072771;28;20049;-64
2023/05/24 04:41:06;;;;;;;10.27;3.20;;;20.10;82.50;;;;;;5060069;28;20044;-61
2023/05/24 04:43:33;;;;;;;8.98;3.22;;;20.10;82.50;;;;;;5072599;28;20052;-61
2023/05/24 04:45:59;;;;;;;9.52;3.60;;;20.10;82.40;;;;;;5067603;28;20112;-61
2023/05/24 04:48:25;;;;;;;7.18;2.70;;;20.20;82.60;;;;;;5064959;28;20128;-61
2023/05/24 04:50:51;;;;;;;9.20;2.95;;;20.20;82.50;;;;;;5073292;28;20074;-61
2023/05/24 04:53:17;;;;;;;10.32;3.13;;;20.10;82.50;;;;;;5070163;28;20055;-60
2023/05/24 04:55:43;;;;;;;8.38;3.08;;;20.20;82.50;;;;;;5066041;28;20433;-60
2023/05/24 04:58:09;;;;;;;9.75;3.13;;;20.30;82.50;;;;;;5065878;28;20098;-61
2023/05/24 05:00:35;;;;;;;10.98;3.17;;;20.30;82.40;;;;;;5073035;28;20041;-60
2023/05/24 05:03:01;;;;;;;8.63;2.55;;;;;;;;;;5071993;28;20040;-62
2023/05/24 05:05:27;;;;;;;11.60;3.30;;;20.50;82.50;;;;;;5073622;28;20048;-60
2023/05/24 05:07:52;;;;;;;8.85;3.00;;;20.30;82.40;;;;;;5066950;28;20093;-60
2023/05/24 05:10:18;;;;;;;7.65;2.45;;;20.30;82.50;;;;;;5070502;28;20079;-61
2023/05/24 05:12:44;;;;;;;7.57;2.78;;;20.20;82.60;;;;;;5064840;28;20045;-61
2023/05/24 05:15:10;;;;;;;8.20;2.72;;;20.40;82.60;;;;;;5052964;28;20455;-60
2023/05/24 05:17:36;;;;;;;7.47;2.80;;;20.30;82.60;;;;;;5063910;28;20052;-59
2023/05/24 05:20:03;;;;;;;10.50;3.75;;;20.50;82.60;;;;;;5072496;28;20488;-62
2023/05/24 05:22:29;;;;;;;8.70;2.50;;;20.30;82.50;;;;;;5072724;28;20040;-62
2023/05/24 05:24:55;;;;;;;7.75;2.65;;;20.30;82.50;;;;;;5072659;28;20040;-64
2023/05/24 05:27:20;;;;;;;8.40;2.67;;;20.20;82.40;;;;;;5054493;28;20075;-64
2023/05/24 05:29:47;;;;;;;10.02;2.80;;;;;;;;;;5071566;28;20144;-63
2023/05/24 05:32:12;;;;;;;8.13;3.17;;;20.40;82.40;;;;;;5072145;28;20044;-61
2023/05/24 05:34:38;;;;;;;9.20;2.88;;;20.40;82.50;;;;;;5073006;28;20052;-64
2023/05/24 05:37:04;;;;;;;9.52;3.20;;;20.40;82.40;;;;;;5071226;28;20076;-64
2023/05/24 05:39:30;;;;;;;8.65;3.15;;;20.60;82.40;;;;;;5063786;28;20531;-63
2023/05/24 05:41:56;;;;;;;9.75;2.75;;;20.40;82.40;;;;;;5068996;28;20044;-60
2023/05/24 05:44:22;;;;;;;10.07;2.80;;;20.60;82.60;;;;;;5072410;28;20102;-61
2023/05/24 05:46:48;;;;;;;9.73;2.97;;;;;;;;;;5070285;28;20040;-61
2023/05/24 05:49:17;;;;;;;9.60;3.20;;;20.30;82.40;;;;;;5071376;28;20048;-61
2023/05/24 05:51:43;;;;;;;7.05;2.83;;;;;;;;;;5071926;28;20037;-67
2023/05/24 05:54:13;;;;;;;10.43;3.35;;;20.50;82.50;;;;;;5052815;28;20106;-65
2023/05/24 05:56:44;;;;;;;7.68;2.83;;;20.70;80.20;;;;;;5059960;28;20045;-63
2023/05/24 05:59:14;;;;;;;9.07;2.70;;;20.70;82.50;;;;;;5069286;28;20117;-63
2023/05/24 06:01:40;;;;;;;9.57;2.85;;;20.40;82.50;;;;;;5070992;28;20044;-61
2023/05/24 06:04:06;;;;;;;8.35;2.78;;;20.60;82.60;;;;;;5071257;28;20040;-60
2023/05/24 06:06:32;;;;;;;8.77;2.80;;;20.60;82.50;;;;;;5070383;28;20514;-60
2023/05/24 06:08:59;;;;;;;10.27;3.00;;;20.60;82.50;;;;;;5052596;28;20060;-61
2023/05/24 06:11:25;;;;;;;7.95;2.70;;;20.50;82.50;;;;;;5070558;28;20063;-61
2023/05/24 06:13:52;;;;;;;7.50;2.55;;;20.40;82.50;;;;;;5070488;28;20074;-62
2023/05/24 06:16:18;;;;;;;10.75;3.85;;;20.50;82.60;;;;;;5071624;28;20036;-59
2023/05/24 06:18:46;;;;;;;11.13;3.20;;;20.50;79.40;;;;;;5055922;28;20048;-66
2023/05/24 06:21:12;;;;;;;18.15;3.85;;;20.40;82.50;;;;;;5059101;28;20120;-62
2023/05/24 06:23:38;;;;;;;10.05;2.90;;;20.50;82.60;;;;;;5067692;28;20037;-66
2023/05/24 06:26:05;;;;;;;6.47;2.40;;;20.80;82.70;;;;;;5071949;28;20066;-66
2023/05/24 06:28:30;;;;;;;5.93;3.10;;;20.80;82.70;;;;;;5071837;28;20045;-66
2023/05/24 06:30:56;;;;;;;10.32;3.40;;;20.50;82.50;;;;;;5070578;28;20051;-66
2023/05/24 06:33:22;;;;;;;9.48;2.72;;;20.30;82.40;;;;;;5065197;28;20052;-64
2023/05/24 06:35:48;;;;;;;10.23;3.65;;;20.70;82.60;;;;;;5067920;28;20093;-65
2023/05/24 06:38:14;;;;;;;9.13;3.10;;;20.70;82.60;;;;;;5053474;28;20485;-67
2023/05/24 06:40:40;;;;;;;7.20;2.50;;;20.30;82.40;;;;;;5072085;28;20166;-67
2023/05/24 06:43:06;;;;;;;8.43;2.50;;;20.80;82.40;;;;;;5063508;28;20041;-66
2023/05/24 06:45:31;;;;;;;9.52;3.47;;;20.90;82.70;;;;;;5074728;28;20048;-66
2023/05/24 06:47:57;;;;;;;9.77;3.05;;;;;;;;;;5075382;28;20055;-66
2023/05/24 06:50:24;;;;;;;7.88;2.80;;;;;;;;;;5067662;28;21392;-66
2023/05/24 06:52:49;;;;;;;10.38;3.05;;;20.80;82.40;;;;;;5063773;28;20440;-67
2023/05/24 06:55:15;;;;;;;7.18;2.55;;;20.70;82.40;;;;;;5073247;28;20041;-66
2023/05/24 06:57:41;;;;;;;8.60;2.90;;;21.00;82.50;;;;;;5052754;28;20134;-61
2023/05/24 07:00:10;;;;;;;8.45;2.80;;;20.90;82.40;;;;;;5070590;28;20405;-62
2023/05/24 07:02:39;;;;;;;9.10;3.47;;;20.80;82.30;;;;;;5073523;28;20769;-62
2023/05/24 07:05:10;;;;;;;11.05;3.38;;;20.80;82.30;;;;;;5069096;28;20036;-67
2023/05/24 07:07:38;;;;;;;9.18;2.95;;;20.80;80.10;;;;;;5074380;28;20056;-67
2023/05/24 07:10:07;;;;;;;9.63;3.08;;;20.90;82.30;;;;;;5074501;28;20048;-67
2023/05/24 07:12:34;;;;;;;7.55;2.60;;;;;;;;;;5075371;28;20036;-66
2023/05/24 07:14:59;;;;;;;8.30;3.13;;;20.70;82.10;;;;;;5073622;28;20056;-63
2023/05/24 07:17:25;;;;;;;7.82;2.70;;;20.90;81.70;;;;;;5072766;28;20040;-67
2023/05/24 07:19:51;;;;;;;10.63;3.22;;;21.00;82.10;;;;;;5073946;28;20153;-67
2023/05/24 07:22:17;;;;;;;8.02;2.80;;;;;;;;;;5073359;28;20044;-67
2023/05/24 07:24:43;;;;;;;9.43;2.97;;;21.00;82.00;;;;;;5074033;28;20376;-67
2023/05/24 07:27:08;;;;;;;8.05;2.42;;;20.80;81.90;;;;;;5073958;28;20047;-67
2023/05/24 07:29:34;;;;;;;10.48;2.80;;;20.90;82.00;;;;;;5073909;28;20612;-67
2023/05/24 07:32:01;;;;;;;10.32;3.13;;;20.90;81.90;;;;;;5071328;28;20045;-67
2023/05/24 07:34:28;;;;;;;6.75;2.58;;;21.20;81.90;;;;;;5071946;28;20174;-67
2023/05/24 07:37:00;;;;;;;8.25;3.05;;;21.10;81.70;;;;;;5066270;28;20109;-61
2023/05/24 07:39:26;;;;;;;9.07;2.90;;;21.60;81.80;;;;;;5067368;28;20045;-65
2023/05/24 07:41:53;;;;;;;10.65;3.58;;;21.40;81.40;;;;;;5071761;28;20033;-65
2023/05/24 07:44:18;;;;;;;7.43;3.08;;;21.30;81.30;;;;;;5072137;28;20044;-66
2023/05/24 07:46:45;;;;;;;8.65;2.83;;;21.50;81.10;;;;;;5071114;28;20051;-67
2023/05/24 07:49:11;;;;;;;7.95;2.92;;;21.50;81.00;;;;;;5072191;28;20565;-67
2023/05/24 07:51:37;;;;;;;9.13;3.22;;;21.70;80.90;;;;;;5072663;28;20050;-67
2023/05/24 07:54:03;;;;;;;8.85;2.67;;;;;;;;;;5062170;28;20406;-67
2023/05/24 07:56:29;;;;;;;8.15;3.13;;;21.90;80.80;;;;;;5072761;28;20508;-66
2023/05/24 07:59:05;;;;;;;8.73;3.08;;;21.80;80.70;;;;;;5074110;28;20037;-67
2023/05/24 08:01:33;;;;;;;8.27;3.03;;;;;;;;;;5070903;28;20040;-67
2023/05/24 08:03:59;;;;;;;7.93;2.75;;;;;;;;;;5070677;28;20486;-63
2023/05/24 08:06:25;;;;;;;6.18;2.65;;;22.00;80.40;;;;;;5071068;28;20044;-67
2023/05/24 08:08:51;;;;;;;9.40;3.20;;;22.20;78.40;;;;;;5070785;28;20041;-66
2023/05/24 08:11:16;;;;;;;10.27;2.78;;;22.10;80.10;;;;;;5071685;28;20123;-68
2023/05/24 08:13:43;;;;;;;11.85;3.28;;;22.20;80.10;;;;;;5068104;28;20494;-69
2023/05/24 08:16:09;;;;;;;8.93;2.90;;;;;;;;;;5072503;28;20068;-68
2023/05/24 08:18:35;;;;;;;9.38;2.97;;;22.40;79.70;;;;;;5072165;28;20177;-67
2023/05/24 08:21:01;;;;;;;10.23;2.80;;;22.50;79.70;;;;;;5072281;28;20116;-68
2023/05/24 08:23:28;;;;;;;7.03;2.67;;;22.40;79.60;;;;;;5071389;28;20074;-69
2023/05/24 08:25:55;;;;;;;9.85;2.90;;;;;;;;;;5072455;28;20485;-69
2023/05/24 08:28:20;;;;;;;8.68;2.90;;;22.50;79.50;;;;;;5052685;28;20048;-71
2023/05/24 08:30:48;;;;;;;7.90;2.70;;;22.40;79.50;;;;;;5072297;28;20044;-70
2023/05/24 08:33:13;;;;;;;10.52;2.70;;;22.50;79.20;;;;;;5071555;28;20056;-69
2023/05/24 08:35:40;;;;;;;8.73;2.83;;;;;;;;;;5071459;28;20045;-69
2023/05/24 08:38:06;;;;;;;8.63;3.00;;;22.60;79.10;;;;;;5072471;28;20111;-68
2023/05/24 08:40:32;;;;;;;11.73;3.13;;;22.40;78.80;;;;;;5071788;28;20542;-67
2023/05/24 08:43:00;;;;;;;9.38;3.00;;;22.60;78.80;;;;;;5051151;28;20052;-68
2023/05/24 08:45:27;;;;;;;8.95;3.05;;;22.50;78.60;;;;;;5056570;28;20134;-71
2023/05/24 08:47:53;;;;;;;8.43;3.50;;;22.50;78.80;;;;;;5068377;28;20389;-70
2023/05/24 08:50:18;;;;;;;8.63;3.22;;;22.50;78.90;;;;;;5048345;28;20037;-61
2023/05/24 08:52:44;;;;;;;9.43;3.10;;;22.50;78.90;;;;;;5034214;28;20032;-74
2023/05/24 08:55:10;;;;;;;13.07;3.67;;;22.50;78.90;;;;;;5048528;28;20769;-71
2023/05/24 08:57:40;;;;;;;8.23;3.33;;;;;;;;;;5068242;28;20036;-62
2023/05/24 09:00:12;;;;;;;7.40;3.03;;;22.30;78.80;;;;;;5072754;28;20052;-62
2023/05/24 09:02:38;;;;;;;;;;;22.40;76.10;;;;;;5073377;28;20102;-71
2023/05/24 09:05:05;;;;;;;17.85;4.00;;;22.40;78.90;;;;;;5071254;28;19920;-68
2023/05/24 09:07:30;;;;;;;13.73;3.45;;;22.10;78.70;;;;;;5035837;28;20045;-68
2023/05/24 09:09:58;;;;;;;18.27;3.30;;;22.10;75.50;;;;;;5050439;28;20494;-70
2023/05/24 09:12:25;;;;;;;17.10;3.88;;;22.20;78.60;;;;;;5051602;28;20044;-67
2023/05/24 09:14:50;;;;;;;20.58;4.18;;;22.10;78.40;;;;;;5051343;28;20490;-67
2023/05/24 09:17:16;;;;;;;11.18;3.35;;;22.10;78.30;;;;;;5050659;28;20067;-68
2023/05/24 09:19:48;;;;;;;13.35;3.00;;;21.60;77.30;;;;;;5052290;28;20044;-67
2023/05/24 09:22:14;;;;;;;11.00;3.47;;;21.80;78.10;;;;;;5051989;28;20037;-69
2023/05/24 09:24:40;;;;;;;13.00;3.00;;;21.90;78.10;;;;;;5052255;28;20094;-67
2023/05/24 09:27:06;;;;;;;14.93;3.83;;;21.70;78.00;;;;;;5051763;28;20044;-63
2023/05/24 09:29:36;;;;;;;11.65;3.40;;;21.70;73.70;;;;;;5052489;28;20045;-65
2023/05/24 09:32:03;;;;;;;14.40;3.38;;;;;;;;;;5034521;28;20052;-63
2023/05/24 09:34:39;;;;;;;16.92;3.85;;;21.40;77.70;;;;;;5051947;28;20044;-65
2023/05/24 09:37:06;;;;;;;12.45;3.10;;;21.70;77.90;;;;;;5049532;28;20080;-64
2023/05/24 09:39:32;;;;;;;13.65;3.63;;;;;;;;;;5042249;28;20079;-63
2023/05/24 09:41:59;;;;;;;10.27;3.30;;;;;;;;;;5051191;28;20041;-63
2023/05/24 09:44:28;;;;;;;11.52;2.92;;;21.70;77.90;;;;;;5049570;28;20496;-64
2023/05/24 09:47:00;;;;;;;11.57;3.47;;;21.70;77.80;;;;;;5067838;28;20055;-64
2023/05/24 09:49:26;;;;;;;9.98;3.95;;;21.60;77.80;;;;;;5050759;28;20118;-63
2023/05/24 09:51:51;;;;;;;10.02;3.20;;;21.60;75.60;;;;;;5052077;28;20033;-65
2023/05/24 09:54:17;;;;;;;11.50;3.38;;;21.30;77.60;;;;;;5050159;28;20422;-67
2023/05/24 09:56:43;;;;;;;10.18;2.70;;;21.70;77.80;;;;;;5051733;28;20503;-67
2023/05/24 09:59:09;;;;;;;10.75;3.40;;;21.80;77.90;;;;;;5049866;28;20515;-67
2023/05/24 10:01:34;;;;;;;9.55;2.88;;;21.90;77.90;;;;;;5052197;28;20501;-67
2023/05/24 10:04:01;;;;;;;9.02;2.83;;;21.70;77.70;;;;;;5050430;28;20041;-68
2023/05/24 10:06:28;;;;;;;8.70;2.78;;;21.60;77.60;;;;;;5052210;28;20049;-67
2023/05/24 10:08:55;;;;;;;10.05;3.22;;;21.30;74.40;;;;;;5052410;28;20453;-67
2023/05/24 10:11:21;;;;;;;9.55;3.13;;;21.40;77.50;;;;;;5051327;28;20464;-67
2023/05/24 10:13:47;;;;;;;7.75;3.28;;;21.70;77.70;;;;;;5053107;28;20132;-67
2023/05/24 10:16:14;;;;;;;12.10;3.85;;;21.60;77.70;;;;;;5071936;28;20131;-66
2023/05/24 10:18:40;;;;;;;10.15;3.25;;;21.90;77.90;;;;;;5071957;28;20076;-66
2023/05/24 10:21:08;;;;;;;9.07;2.95;;;21.60;77.80;;;;;;5074447;28;20539;-67
2023/05/24 10:23:38;;;;;;;11.65;3.67;;;21.30;76.40;;;;;;5075618;28;20052;-66
2023/05/24 10:26:07;;;;;;;10.38;3.47;;;21.50;77.90;;;;;;5075701;28;20045;-66
2023/05/24 10:28:45;;;;;;;9.85;3.17;;;21.90;75.00;;;;;;5075826;28;20044;-66
2023/05/24 10:31:16;;;;;;;11.63;3.35;;;21.70;75.80;;;;;;5037362;28;20045;-66
2023/05/24 10:33:43;;;;;;;10.32;3.17;;;21.80;78.00;;;;;;5060925;28;20086;-67
2023/05/24 10:36:11;;;;;;;33.47;3.78;;;21.60;78.00;;;;;;5054766;28;20041;-67
2023/05/24 10:38:38;;;;;;;16.90;4.32;;;21.70;78.00;;;;;;5057216;28;20064;-68
2023/05/24 10:41:05;;;;;;;19.40;3.47;;;21.80;78.10;;;;;;5072693;28;20406;-67
2023/05/24 10:43:30;;;;;;;11.50;3.42;;;21.80;78.20;;;;;;5058013;28;20094;-67
2023/05/24 10:45:57;;;;;;;18.73;4.07;;;;;;;;;;5073798;28;20485;-66
2023/05/24 10:48:23;;;;;;;18.15;3.22;;;21.80;78.20;;;;;;5072982;28;20169;-66
2023/05/24 10:50:49;;;;;;;15.90;4.18;;;22.00;78.30;;;;;;5075506;28;20054;-66
2023/05/24 10:53:15;;;;;;;13.52;3.50;;;21.70;78.10;;;;;;5074441;28;20041;-61
2023/05/24 10:55:57;;;;;;;9.68;3.50;;;22.10;76.60;;;;;;5073152;28;20048;-66
2023/05/24 10:58:57;;;;;;;9.53;3.40;;;22.10;78.10;;;;;;5072569;28;20498;-67
2023/05/24 11:01:26;;;;;;;13.63;3.33;;;21.70;78.00;;;;;;5075311;28;20132;-67
2023/05/24 11:03:52;;;;;;;8.93;3.38;;;21.90;78.00;;;;;;5055702;28;20125;-66
2023/05/24 11:06:18;;;;;;;13.43;3.40;;;22.10;78.10;;;;;;5070690;28;20478;-67
2023/05/24 11:08:45;;;;;;;10.77;3.15;;;22.10;78.10;;;;;;5056612;28;20050;-67
2023/05/24 11:11:19;;;;;;;9.95;3.05;;;22.10;78.00;;;;;;5036224;28;20044;-67
2023/05/24 11:13:45;;;;;;;8.65;3.33;;;22.10;78.00;;;;;;5055555;28;20041;-66
2023/05/24 11:16:31;;;;;;;10.52;2.97;;;22.10;74.90;;;;;;5051092;28;20498;-66
2023/05/24 11:18:57;;;;;;;12.55;3.22;;;22.30;77.80;;;;;;5060177;28;20060;-66
2023/05/24 11:21:23;;;;;;;10.15;3.53;;;;;;;;;;5065049;28;20052;-66
2023/05/24 11:23:50;;;;;;;10.20;3.35;;;22.30;78.10;;;;;;5057099;28;20090;-66
2023/05/24 11:26:16;;;;;;;8.30;3.50;;;22.10;78.10;;;;;;5055702;28;20047;-67
2023/05/24 11:28:42;;;;;;;7.75;3.15;;;;;;;;;;5040675;28;20127;-67
2023/05/24 11:31:08;;;;;;;11.30;3.88;;;22.20;78.10;;;;;;5056204;28;20047;-62
2023/05/24 11:33:34;;;;;;;8.93;2.97;;;22.00;78.00;;;;;;5056590;28;20058;-61
2023/05/24 11:36:01;;;;;;;8.68;3.35;;;22.10;78.00;;;;;;5070955;28;20115;-61
2023/05/24 11:38:27;;;;;;;10.18;2.92;;;22.30;78.10;;;;;;5040192;28;20449;-63
2023/05/24 11:40:53;;;;;;;10.77;3.30;;;22.50;78.20;;;;;;5055956;28;20174;-63
2023/05/24 11:43:19;;;;;;;10.82;2.97;;;22.30;77.00;;;;;;5073245;28;20041;-63
2023/05/24 11:45:49;;;;;;;13.68;3.42;;;22.30;78.10;;;;;;5054836;28;20036;-67
2023/05/24 11:48:15;;;;;;;7.63;3.05;;;22.40;78.20;;;;;;5073609;28;20048;-66
2023/05/24 11:50:42;;;;;;;10.85;3.20;;;22.30;74.70;;;;;;5074513;28;20060;-68
2023/05/24 11:53:11;;;;;;;9.02;3.30;;;22.40;78.20;;;;;;5067719;28;20041;-61
2023/05/24 11:55:39;;;;;;;10.80;3.20;;;22.30;77.90;;;;;;5065596;28;20051;-71
2023/05/24 11:58:15;;;;;;;11.38;2.83;;;22.50;78.00;;;;;;5068257;28;20048;-67
2023/05/24 12:00:42;;;;;;;14.43;3.47;;;22.40;77.70;;;;;;5055167;28;20055;-67
2023/05/24 12:03:08;;;;;;;12.85;3.33;;;;;;;;;;5066976;28;20041;-67
2023/05/24 12:05:35;;;;;;;14.27;2.85;;;22.60;75.00;;;;;;5059988;28;20506;-67
2023/05/24 12:08:05;;;;;;;16.83;3.53;;;22.50;77.50;;;;;;5067733;28;20034;-67
2023/05/24 12:10:38;;;;;;;11.40;3.10;;;22.70;77.60;;;;;;5074155;28;20111;-67
2023/05/24 12:13:20;;;;;;;9.65;3.60;;;22.50;77.30;;;;;;5068646;28;20636;-67
2023/05/24 12:15:51;;;;;;;10.80;3.28;;;22.60;77.40;;;;;;5033734;28;20211;-67
2023/05/24 12:18:26;;;;;;;12.05;3.28;;;22.50;77.40;;;;;;5051874;28;20372;-67
2023/05/24 12:20:52;;;;;;;10.60;3.33;;;22.40;76.50;;;;;;5050525;28;20085;-67
2023/05/24 12:23:23;;;;;;;10.65;3.40;;;22.70;77.50;;;;;;5050326;28;20073;-61
2023/05/24 12:25:49;;;;;;;10.93;3.58;;;;;;;;;;5045706;28;20041;-68
2023/05/24 12:28:18;;;;;;;9.85;3.20;;;22.40;75.20;;;;;;5046604;28;20041;-67
2023/05/24 12:30:44;;;;;;;10.32;3.40;;;22.70;77.50;;;;;;5047780;28;20383;-67
2023/05/24 12:33:10;;;;;;;13.98;3.55;;;22.50;75.30;;;;;;5048087;28;20045;-67
2023/05/24 12:35:36;;;;;;;11.18;3.03;;;22.50;77.30;;;;;;5047918;28;20127;-68
2023/05/24 12:38:03;;;;;;;10.88;4.18;;;;;;;;;;5048531;28;20044;-68
2023/05/24 12:40:32;;;;;;;10.85;3.50;;;22.70;77.30;;;;;;5047785;28;20055;-67
2023/05/24 12:42:58;;;;;;;10.82;3.58;;;22.60;77.20;;;;;;5050031;28;20045;-67
2023/05/24 12:45:24;;;;;;;10.43;3.47;;;22.40;77.10;;;;;;5050779;28;20490;-67
2023/05/24 12:47:54;;;;;;;11.88;3.90;;;22.60;75.90;;;;;;5051019;28;20056;-61
2023/05/24 12:50:21;;;;;;;9.73;3.45;;;22.80;73.40;;;;;;5066761;28;20456;-67
2023/05/24 12:52:47;;;;;;;32.25;5.13;;;22.40;76.80;;;;;;5053378;28;20130;-67
2023/05/24 12:55:16;;;;;;;27.10;4.57;;;22.50;76.70;;;;;;5052447;28;20056;-62
2023/05/24 12:57:42;;;;;;;22.48;4.10;;;;;;;;;;5049860;28;20497;-62